Latest Weather Observations for Mount Hotham AWS

IDV60801

Issued at 11:35 pm EST Sunday 20 April 2014 (issued every 30 minutes, with the page automatically refreshed every 10 minutes)

About weather observations | Map of weather stations | Latest weather observations for VIC | Other Formats
Station Details ID: 083085 Name: MOUNT HOTHAM Lat: -36.98 Lon: 147.13 Height: 1849.0 m
Data from the previous 72 hours. | See also: Recent months at Mount Hotham AWS
Date/Time
EST
Temp
°C
App
Temp
°C
Dew
Point
Rel
Hum
%
Delta-T
°C
Wind Press
QNH
hPa
Press
MSL
hPa
Rain
since 9 am
mm
Dir
 
Spd
km/h
Gust
km/h
Spd
kts
Gust
kts
20/11:30pm -0.5 -6.7 -0.6 99 0.0 SSE 22 28 12 15 - - 0.2
20/11:00pm -0.5 -7.2 -0.8 98 0.1 S 24 28 13 15 - - 0.2
20/10:30pm -0.9 -7.6 -1.0 99 0.0 S 24 28 13 15 - - 0.2
20/10:00pm -1.0 -8.5 -1.1 99 0.0 S 28 33 15 18 - - 0.2
20/09:30pm -1.1 -8.6 -1.2 99 0.0 S 28 35 15 19 - - 0.2
20/09:00pm -1.5 -7.5 -1.6 99 0.0 SW 20 26 11 14 - - 0.2
20/08:30pm -1.3 -7.7 -1.4 99 0.0 SW 22 28 12 15 - - 0.2
20/08:00pm -1.6 -8.0 -1.7 99 0.0 SW 22 30 12 16 - - 0.2
20/07:30pm -1.9 -8.7 -2.0 99 -0.1 SW 24 28 13 15 - - 0.2
20/07:00pm -2.0 -7.9 -2.1 99 -0.1 SW 19 22 10 12 - - 0.2
20/06:30pm -1.5 -6.2 -1.6 99 0.0 WSW 13 19 7 10 - - 0.2
20/06:00pm -1.6 -7.0 -1.7 99 0.0 W 17 22 9 12 - - 0.2
20/05:30pm -1.4 -5.7 -1.5 99 0.0 W 11 20 6 11 - - 0.2
20/05:00pm -1.3 -6.7 -1.4 99 0.0 W 17 26 9 14 - - 0.2
20/04:30pm -1.0 -6.9 -1.1 99 0.0 WNW 20 24 11 13 - - 0.2
20/04:00pm -0.8 -6.7 -0.9 99 0.0 WNW 20 28 11 15 - - 0.2
20/03:30pm -0.9 -8.7 -1.0 99 0.0 WNW 30 35 16 19 - - 0.2
20/03:00pm -0.7 -8.1 -0.8 99 0.0 NW 28 35 15 19 - - 0.2
20/02:30pm -0.8 -9.0 -0.9 99 0.0 WNW 32 39 17 21 - - 0.2
20/02:00pm -0.8 -8.6 -0.9 99 0.0 WNW 30 43 16 23 - - 0.2
20/01:30pm -0.7 -8.9 -0.8 99 0.0 NW 32 41 17 22 - - 0.2
20/01:00pm -0.7 -8.5 -0.8 99 0.0 W 30 41 16 22 - - 0.2
20/12:30pm -0.7 -8.9 -0.8 99 0.0 NW 32 43 17 23 - - 0.2
20/12:00pm -0.8 -8.2 -0.9 99 0.0 NW 28 43 15 23 - - 0.2
20/11:30am -0.3 -8.6 -0.4 99 0.0 NW 33 44 18 24 - - 0.2
20/11:00am -0.4 -8.5 -0.5 99 0.0 NW 32 41 17 22 - - 0.2
20/10:30am -0.4 -8.5 -0.5 99 0.0 NW 32 44 17 24 - - 0.2
20/10:00am -0.5 -9.2 -0.6 99 0.0 NNW 35 46 19 25 - - 0.2
20/09:30am -0.9 -9.7 -1.0 99 0.0 NNW 35 44 19 24 - - 0.0
20/09:00am -0.9 -9.7 -1.0 99 0.0 NNW 35 46 19 25 - - 0.2
20/08:30am -0.8 -9.6 -0.9 99 0.0 NNW 35 46 19 25 - - 0.2
20/08:00am -0.8 -9.9 -0.9 99 0.0 NNW 37 48 20 26 - - 0.2
20/07:30am -0.9 -10.1 -1.0 99 0.0 NNW 37 48 20 26 - - 0.2
20/07:00am -0.7 -10.2 -0.8 99 0.0 NNW 39 48 21 26 - - 0.2
20/06:30am -0.7 -10.2 -0.8 99 0.0 NNW 39 52 21 28 - - 0.2
20/06:00am -0.7 -11.0 -0.8 99 0.0 NNW 43 50 23 27 - - 0.2
20/05:30am -0.4 -10.8 -0.5 99 0.0 NNW 44 56 24 30 - - 0.2
20/05:00am -0.3 -10.5 -0.4 99 0.0 NNW 43 54 23 29 - - 0.2
20/04:30am -0.4 -9.9 -0.5 99 0.0 NNW 39 46 21 25 - - 0.2
20/04:00am -0.4 -9.5 -0.5 99 0.0 NNW 37 44 20 24 - - 0.2
20/03:30am -0.3 -9.4 -0.4 99 0.0 NNW 37 44 20 24 - - 0.2
20/03:00am 0.1 -9.7 0.0 99 0.0 NNW 41 50 22 27 - - 0.2
20/02:30am 0.3 -8.9 -1.3 89 0.7 NNW 37 46 20 25 - - 0.0
20/02:00am 0.0 -8.2 -0.7 95 0.3 NNW 32 35 17 19 - - 0.0
20/01:30am 0.1 -8.2 0.0 99 0.0 NNW 33 39 18 21 - - 0.0
20/01:00am 0.5 -7.8 -0.2 95 0.3 NNW 33 39 18 21 - - 0.0
20/12:30am 0.2 -7.5 0.1 99 0.0 NNW 30 35 16 19 - - 0.0
20/12:00am -0.1 -7.4 -0.2 99 0.0 NNW 28 30 15 16 - - 0.0
 
Date/Time
EST
Temp
°C
App
Temp
°C
Dew
Point
Rel
Hum
%
Delta-T
°C
Wind Press
QNH
hPa
Press
MSL
hPa
Rain
since 9 am
mm
Dir
 
Spd
km/h
Gust
km/h
Spd
kts
Gust
kts
19/11:30pm -0.1 -7.1 -0.2 99 0.0 NNW 26 28 14 15 - - 0.0
19/11:00pm 0.2 -5.9 0.1 99 0.0 NNW 22 26 12 14 - - 0.0
19/10:30pm 0.5 -5.2 0.4 99 0.0 NNW 20 26 11 14 - - 0.0
19/10:00pm 0.4 -5.1 0.3 99 0.0 NNW 19 24 10 13 - - 0.0
19/09:30pm 0.8 -4.7 0.7 99 0.0 N 19 22 10 12 - - 0.0
19/09:00pm 0.9 -3.8 0.8 99 0.0 NNW 15 19 8 10 - - 0.0
19/08:30pm 1.0 -2.6 0.9 99 0.0 N 9 15 5 8 - - 0.0
19/08:00pm 0.9 -2.1 0.8 99 0.0 ENE 6 9 3 5 - - 0.0
19/07:30pm 1.2 -1.4 1.1 99 0.0 ENE 4 9 2 5 - - 0.0
19/07:00pm 1.0 -2.2 0.9 99 0.0 ENE 7 9 4 5 - - 0.0
19/06:30pm 1.5 -1.6 1.2 98 0.1 E 7 11 4 6 - - 0.0
19/06:00pm 2.1 -1.0 1.2 94 0.4 ESE 7 13 4 7 - - 0.0
19/05:30pm 3.2 1.4 1.3 87 0.8 CALM 0 6 0 3 - - 0.0
19/05:00pm 2.9 -0.1 0.8 86 0.9 SW 6 7 3 4 - - 0.0
19/04:30pm 3.5 0.0 1.2 85 1.0 WSW 9 11 5 6 - - 0.0
19/04:00pm 3.8 0.3 1.4 84 1.1 WNW 9 13 5 7 - - 0.0
19/03:30pm 4.1 1.1 1.0 80 1.4 S 6 9 3 5 - - 0.0
19/03:00pm 4.7 1.6 1.2 78 1.5 SSW 7 15 4 8 - - 0.0
19/02:30pm 4.1 0.4 0.1 75 1.7 S 9 15 5 8 - - 0.0
19/02:00pm 4.8 1.0 1.5 79 1.5 WSW 11 15 6 8 - - 0.0
19/01:30pm 3.2 -0.6 1.6 89 0.7 SW 11 17 6 9 - - 0.0
19/01:00pm 2.7 -0.6 2.6 99 0.0 S 9 11 5 6 - - 0.0
19/12:30pm 2.2 -0.8 2.1 99 0.0 SSE 7 13 4 7 - - 0.0
19/12:00pm 0.8 -2.4 0.7 99 0.0 SE 7 11 4 6 - - 0.0
19/11:30am -0.1 -3.8 -0.2 99 0.0 SSE 9 13 5 7 - - 0.0
19/11:00am -0.3 -6.0 -0.4 99 0.0 SSE 19 22 10 12 - - 0.0
19/10:30am -0.9 -7.2 -1.0 99 0.0 SSE 22 26 12 14 - - 0.0
19/10:00am -1.6 -8.8 -1.7 99 0.0 SSE 26 33 14 18 - - 0.0
19/09:30am -2.0 -8.8 -2.1 99 -0.1 SSE 24 28 13 15 - - 0.0
19/09:00am -2.0 -10.0 -2.1 99 -0.1 SSE 30 35 16 19 - - 4.8
19/08:30am -2.2 -9.8 -2.3 99 -0.1 SSE 28 35 15 19 - - 4.8
19/08:00am -2.5 -10.9 -2.6 99 -0.1 SSE 32 41 17 22 - - 4.8
19/07:30am -2.7 -11.7 -2.8 99 -0.1 SSE 35 41 19 22 - - 4.8
19/07:00am -2.7 -12.1 -2.8 99 -0.1 SSE 37 46 20 25 - - 4.8
19/06:30am -2.7 -12.5 -2.8 99 -0.1 SSE 39 46 21 25 - - 4.8
19/06:00am -2.6 -12.0 -2.7 99 -0.1 SSE 37 41 20 22 - - 4.8
19/05:30am -2.3 -11.3 -2.4 99 -0.1 SSE 35 43 19 23 - - 4.8
19/05:00am -2.2 -11.1 -2.3 99 -0.1 SSE 35 43 19 23 - - 4.8
19/04:30am -2.3 -11.3 -2.4 99 -0.1 SSE 35 41 19 22 - - 4.8
19/04:00am -2.3 -12.4 -2.4 99 -0.1 SSE 41 46 22 25 - - 4.8
19/03:30am -2.2 -12.3 -2.3 99 -0.1 SSE 41 50 22 27 - - 4.8
19/03:00am -2.1 -12.6 -2.2 99 -0.1 SSE 43 50 23 27 - - 4.8
19/02:30am -2.2 -11.9 -2.3 99 -0.1 SSE 39 46 21 25 - - 4.8
19/02:00am -2.1 -12.6 -2.2 99 -0.1 SSE 43 54 23 29 - - 4.8
19/01:30am -2.2 -13.2 -2.3 99 -0.1 SSE 46 52 25 28 - - 4.8
19/01:00am -2.2 -14.4 -2.3 99 -0.1 SSE 52 61 28 33 - - 4.8
19/12:30am -2.1 -14.6 -2.2 99 -0.1 SSE 54 61 29 33 - - 4.8
19/12:00am -2.0 -14.5 -2.1 99 -0.1 S 54 67 29 36 - - 4.8
 
Date/Time
EST
Temp
°C
App
Temp
°C
Dew
Point
Rel
Hum
%
Delta-T
°C
Wind Press
QNH
hPa
Press
MSL
hPa
Rain
since 9 am
mm
Dir
 
Spd
km/h
Gust
km/h
Spd
kts
Gust
kts
18/11:30pm -2.0 -13.0 -2.1 99 -0.1 SSE 46 57 25 31 - - 4.8
18/11:00pm -1.9 -12.5 -2.0 99 -0.1 SSE 44 52 24 28 - - 4.8
18/10:30pm -1.7 -12.7 -1.8 99 0.0 SSE 46 57 25 31 - - 4.8
18/10:00pm -1.5 -12.4 -1.6 99 0.0 SSE 46 57 25 31 - - 4.8
18/09:30pm -1.2 -12.5 -1.3 99 0.0 SSE 48 56 26 30 - - 4.8
18/09:00pm -1.0 -11.3 -1.1 99 0.0 SSE 43 50 23 27 - - 4.8
18/08:30pm -0.8 -10.7 -0.9 99 0.0 SSE 41 50 22 27 - - 4.8
18/08:00pm -0.1 -8.2 -0.2 99 0.0 SSE 32 37 17 20 - - 4.6
18/07:30pm 1.8 -4.9 1.7 99 0.0 SSE 26 33 14 18 - - 4.6
18/07:00pm 1.5 -4.1 1.4 99 0.0 S 20 28 11 15 - - 4.6
18/06:30pm 2.2 -3.6 2.1 99 0.0 S 22 33 12 18 - - 4.6
18/06:00pm 3.0 -1.7 2.9 99 0.0 S 17 30 9 16 - - 4.6
18/05:30pm 3.4 -3.0 3.3 99 0.0 S 26 32 14 17 - - 4.6
18/05:00pm 3.5 -2.1 3.4 99 0.0 SSW 22 39 12 21 - - 4.6
18/04:30pm 3.9 -4.9 3.8 99 0.0 SW 39 52 21 28 - - 4.6
18/04:14pm 4.2 -2.4 4.1 99 0.0 SSW 28 46 15 25 - - 4.0
18/04:00pm 4.3 -1.2 4.2 99 0.0 W 22 37 12 20 - - 3.0
18/03:30pm 4.1 -3.3 4.0 99 0.0 W 32 44 17 24 - - 2.2
18/03:02pm 4.0 -3.0 3.9 99 0.0 NW 30 48 16 26 - - 1.8
18/03:00pm 3.9 -2.8 3.8 99 0.0 NW 28 41 15 22 - - 1.8
18/02:30pm 4.2 -3.2 4.1 99 0.0 WNW 32 54 17 29 - - 1.2
18/02:00pm 4.1 -3.9 4.0 99 0.0 WNW 35 56 19 30 - - 0.4
18/01:30pm 3.9 -5.2 3.8 99 0.0 NW 41 63 22 34 - - 0.0
18/01:00pm 3.8 -4.2 3.7 99 0.0 NW 35 54 19 29 - - 0.0
18/12:54pm 3.8 -4.2 3.7 99 0.0 NW 35 54 19 29 - - 0.0
18/12:30pm 3.6 -5.2 3.5 99 0.0 NW 39 54 21 29 - - 0.0
18/12:07pm 3.5 -5.0 3.4 99 0.0 NW 37 56 20 30 - - 0.0
18/12:00pm 3.6 -5.2 3.5 99 0.0 NW 39 54 21 29 - - 0.0
18/11:45am 3.6 -4.5 3.5 99 0.0 NW 35 56 19 30 - - 0.0
18/11:30am 3.6 -5.6 3.5 99 0.0 NW 41 57 22 31 - - 0.0
18/11:00am 3.7 -5.5 3.6 99 0.0 NW 41 57 22 31 - - 0.0
18/10:30am 3.4 -5.5 3.3 99 0.0 WNW 39 54 21 29 - - 0.0
18/10:00am 3.4 -6.2 3.3 99 0.0 NW 43 65 23 35 - - 0.0
18/09:34am 3.4 -6.2 3.3 99 0.0 NW 43 63 23 34 - - 0.0
18/09:30am 3.4 -5.8 3.3 99 0.0 NW 41 54 22 29 - - 0.0
18/09:00am 3.5 -6.1 3.4 99 0.0 NW 43 61 23 33 - - 0.4
18/08:59am 3.5 -6.1 3.4 99 0.0 NW 43 61 23 33 - - 0.4
18/08:30am 3.5 -5.7 3.4 99 0.0 NW 41 57 22 31 - - 0.2
18/08:05am 3.6 -6.0 3.5 99 0.0 NW 43 63 23 34 - - 0.2
18/08:00am 3.6 -5.2 3.5 99 0.0 NW 39 54 21 29 - - 0.2
18/07:44am 3.6 -6.2 3.5 99 0.0 NW 44 65 24 35 - - 0.2
18/07:30am 3.7 -6.4 3.6 99 0.0 NW 46 59 25 32 - - 0.2
18/07:00am 3.7 -6.8 3.6 99 0.0 NW 48 67 26 36 - - 0.2
18/06:42am 3.8 -5.9 3.7 99 0.0 NW 44 63 24 34 - - 0.2
18/06:30am 3.9 -6.6 3.8 99 0.0 NW 48 63 26 34 - - 0.2
18/06:08am 3.8 -6.3 3.7 99 0.0 NW 46 65 25 35 - - 0.2
18/06:00am 3.8 -6.3 3.7 99 0.0 NW 46 59 25 32 - - 0.2
18/05:30am 3.7 -5.5 3.6 99 0.0 NW 41 54 22 29 - - 0.2
18/05:00am 3.9 -5.6 3.8 99 0.0 WNW 43 54 23 29 - - 0.2
18/04:30am 3.8 -5.9 3.7 99 0.0 WNW 44 56 24 30 - - 0.2
18/04:00am 4.0 -5.1 3.9 99 0.0 WNW 41 54 22 29 - - 0.2
18/03:30am 4.2 -3.7 4.1 99 0.0 WNW 35 48 19 26 - - 0.2
18/03:00am 4.1 -3.3 4.0 99 0.0 WNW 32 43 17 23 - - 0.2
18/02:30am 3.8 -2.9 3.7 99 0.0 WNW 28 35 15 19 - - 0.2
18/02:00am 3.8 -2.9 3.7 99 0.0 WNW 28 33 15 18 - - 0.2
18/01:30am 4.2 -1.3 4.1 99 0.0 WNW 22 33 12 18 - - 0.0
18/01:00am 3.9 -2.4 3.8 99 0.0 NW 26 32 14 17 - - 0.0
18/12:30am 4.0 -3.0 3.9 99 0.0 NW 30 33 16 18 - - 0.0
18/12:00am 4.1 -2.2 4.0 99 0.0 NW 26 30 14 16 - - 0.0

Other Formats:

Comma delimited format used in spreadsheet applications
http://www.bom.gov.au/fwo/IDV60801/IDV60801.94906.axf

JavaScript Object Notation format (JSON) in row-major order
http://www.bom.gov.au/fwo/IDV60801/IDV60801.94906.json